sensor_id;sensor_type;location;lat;lon;timestamp;pressure;altitude;pressure_sealevel;temperature;humidity
63321;BME280;49449;48.800;9.534;2023-08-06T00:01:01;97817.56;;;17.18;46.18
63321;BME280;49449;48.800;9.534;2023-08-06T00:03:28;97809.56;;;17.18;46.13
63321;BME280;49449;48.800;9.534;2023-08-06T00:05:56;97818.66;;;17.17;45.87
63321;BME280;49449;48.800;9.534;2023-08-06T00:08:24;97817.56;;;17.18;46.12
63321;BME280;49449;48.800;9.534;2023-08-06T00:10:52;97812.53;;;17.16;46.29
63321;BME280;49449;48.800;9.534;2023-08-06T00:13:21;97822.38;;;17.16;46.17
63321;BME280;49449;48.800;9.534;2023-08-06T00:15:49;97807.97;;;17.17;46.15
63321;BME280;49449;48.800;9.534;2023-08-06T00:18:17;97808.75;;;17.17;46.40
63321;BME280;49449;48.800;9.534;2023-08-06T00:20:44;97795.19;;;17.14;46.29
63321;BME280;49449;48.800;9.534;2023-08-06T00:23:12;97807.47;;;17.15;46.35
63321;BME280;49449;48.800;9.534;2023-08-06T00:25:40;97804.03;;;17.14;46.42
63321;BME280;49449;48.800;9.534;2023-08-06T00:28:08;97804.03;;;17.14;46.68
63321;BME280;49449;48.800;9.534;2023-08-06T00:30:37;97809.03;;;17.16;46.49
63321;BME280;49449;48.800;9.534;2023-08-06T00:33:04;97801.84;;;17.16;46.38
63321;BME280;49449;48.800;9.534;2023-08-06T00:35:32;97794.91;;;17.15;46.50
63321;BME280;49449;48.800;9.534;2023-08-06T00:38:00;97794.41;;;17.13;46.61
63321;BME280;49449;48.800;9.534;2023-08-06T00:40:28;97793.34;;;17.14;46.61
63321;BME280;49449;48.800;9.534;2023-08-06T00:42:57;97790.06;;;17.17;46.54
63321;BME280;49449;48.800;9.534;2023-08-06T00:45:25;97786.13;;;17.15;46.59
63321;BME280;49449;48.800;9.534;2023-08-06T00:47:54;97783.75;;;17.13;46.63
63321;BME280;49449;48.800;9.534;2023-08-06T00:50:22;97789.06;;;17.13;46.61
63321;BME280;49449;48.800;9.534;2023-08-06T00:52:51;97786.97;;;17.10;46.47
63321;BME280;49449;48.800;9.534;2023-08-06T00:55:19;97782.75;;;17.09;46.67
63321;BME280;49449;48.800;9.534;2023-08-06T00:57:46;97785.19;;;17.06;46.83
63321;BME280;49449;48.800;9.534;2023-08-06T01:00:15;97785.47;;;17.04;46.72
63321;BME280;49449;48.800;9.534;2023-08-06T01:02:42;97789.72;;;17.05;46.63
63321;BME280;49449;48.800;9.534;2023-08-06T01:05:12;97779.84;;;17.06;46.54
63321;BME280;49449;48.800;9.534;2023-08-06T01:07:49;97778.59;;;16.98;46.97
63321;BME280;49449;48.800;9.534;2023-08-06T01:10:31;97788.00;;;16.95;46.96
63321;BME280;49449;48.800;9.534;2023-08-06T01:13:10;97775.16;;;16.97;46.91
63321;BME280;49449;48.800;9.534;2023-08-06T01:15:43;97766.88;;;16.99;47.05
63321;BME280;49449;48.800;9.534;2023-08-06T01:18:13;97770.03;;;17.01;46.67
63321;BME280;49449;48.800;9.534;2023-08-06T01:20:42;97773.78;;;17.00;46.59
63321;BME280;49449;48.800;9.534;2023-08-06T01:23:10;97771.41;;;16.98;46.72
63321;BME280;49449;48.800;9.534;2023-08-06T01:25:45;97777.38;;;16.90;46.88
63321;BME280;49449;48.800;9.534;2023-08-06T01:28:27;97764.63;;;16.87;46.49
63321;BME280;49449;48.800;9.534;2023-08-06T01:30:57;97759.78;;;16.89;46.60
63321;BME280;49449;48.800;9.534;2023-08-06T01:33:27;97763.06;;;16.86;46.56
63321;BME280;49449;48.800;9.534;2023-08-06T01:36:01;97749.31;;;16.74;46.92
63321;BME280;49449;48.800;9.534;2023-08-06T01:38:30;97749.66;;;16.67;46.66
63321;BME280;49449;48.800;9.534;2023-08-06T01:40:58;97746.22;;;16.66;46.58
63321;BME280;49449;48.800;9.534;2023-08-06T01:43:25;97751.59;;;16.61;46.65
63321;BME280;49449;48.800;9.534;2023-08-06T01:45:53;97747.34;;;16.60;46.36
63321;BME280;49449;48.800;9.534;2023-08-06T01:48:21;97745.75;;;16.59;46.45
63321;BME280;49449;48.800;9.534;2023-08-06T01:50:49;97742.47;;;16.43;46.50
63321;BME280;49449;48.800;9.534;2023-08-06T01:53:19;97737.13;;;16.43;45.98
63321;BME280;49449;48.800;9.534;2023-08-06T01:55:48;97739.59;;;16.40;46.07
63321;BME280;49449;48.800;9.534;2023-08-06T01:58:15;97733.03;;;16.32;46.14
63321;BME280;49449;48.800;9.534;2023-08-06T02:00:43;97736.97;;;16.35;46.10
63321;BME280;49449;48.800;9.534;2023-08-06T02:03:12;97739.88;;;16.38;46.02
63321;BME280;49449;48.800;9.534;2023-08-06T02:05:39;97730.53;;;16.41;46.15
63321;BME280;49449;48.800;9.534;2023-08-06T02:08:07;97726.63;;;16.33;46.00
63321;BME280;49449;48.800;9.534;2023-08-06T02:10:37;97728.31;;;16.24;46.19
63321;BME280;49449;48.800;9.534;2023-08-06T02:13:04;97733.41;;;16.20;46.22
63321;BME280;49449;48.800;9.534;2023-08-06T02:15:32;97732.28;;;16.26;46.39
63321;BME280;49449;48.800;9.534;2023-08-06T02:18:00;97722.13;;;16.28;46.39
63321;BME280;49449;48.800;9.534;2023-08-06T02:20:28;97721.13;;;16.24;46.47
63321;BME280;49449;48.800;9.534;2023-08-06T02:22:55;97714.94;;;16.29;46.26
63321;BME280;49449;48.800;9.534;2023-08-06T02:25:24;97712.47;;;16.33;46.52
63321;BME280;49449;48.800;9.534;2023-08-06T02:27:53;97714.81;;;16.39;46.60
63321;BME280;49449;48.800;9.534;2023-08-06T02:30:21;97713.75;;;16.40;46.86
63321;BME280;49449;48.800;9.534;2023-08-06T02:32:48;97701.19;;;16.41;46.92
63321;BME280;49449;48.800;9.534;2023-08-06T02:35:16;97696.88;;;16.45;46.94
63321;BME280;49449;48.800;9.534;2023-08-06T02:37:44;97697.91;;;16.49;47.13
63321;BME280;49449;48.800;9.534;2023-08-06T02:40:12;97692.34;;;16.45;47.00
63321;BME280;49449;48.800;9.534;2023-08-06T02:42:39;97690.75;;;16.44;47.03
63321;BME280;49449;48.800;9.534;2023-08-06T02:45:09;97689.38;;;16.47;46.76
63321;BME280;49449;48.800;9.534;2023-08-06T02:47:37;97684.63;;;16.44;46.60
63321;BME280;49449;48.800;9.534;2023-08-06T02:50:06;97681.16;;;16.43;46.47
63321;BME280;49449;48.800;9.534;2023-08-06T02:52:34;97683.03;;;16.43;45.88
63321;BME280;49449;48.800;9.534;2023-08-06T02:55:02;97679.09;;;16.40;45.56
63321;BME280;49449;48.800;9.534;2023-08-06T02:57:29;97683.59;;;16.40;45.28
63321;BME280;49449;48.800;9.534;2023-08-06T02:59:57;97674.09;;;16.34;44.62
63321;BME280;49449;48.800;9.534;2023-08-06T03:02:26;97679.44;;;16.34;44.71
63321;BME280;49449;48.800;9.534;2023-08-06T03:04:54;97675.59;;;16.21;44.10
63321;BME280;49449;48.800;9.534;2023-08-06T03:07:22;97673.06;;;16.11;44.01
63321;BME280;49449;48.800;9.534;2023-08-06T03:09:50;97672.03;;;16.06;44.64
63321;BME280;49449;48.800;9.534;2023-08-06T03:12:18;97666.00;;;15.96;45.74
63321;BME280;49449;48.800;9.534;2023-08-06T03:14:45;97663.47;;;15.85;46.13
63321;BME280;49449;48.800;9.534;2023-08-06T03:17:13;97662.44;;;15.81;46.25
63321;BME280;49449;48.800;9.534;2023-08-06T03:19:43;97656.09;;;15.77;46.58
63321;BME280;49449;48.800;9.534;2023-08-06T03:22:10;97660.16;;;15.69;46.66
63321;BME280;49449;48.800;9.534;2023-08-06T03:24:38;97662.59;;;15.66;46.50
63321;BME280;49449;48.800;9.534;2023-08-06T03:27:06;97653.75;;;15.70;46.13
63321;BME280;49449;48.800;9.534;2023-08-06T03:29:34;97656.41;;;15.70;46.42
63321;BME280;49449;48.800;9.534;2023-08-06T03:32:01;97651.88;;;15.71;46.11
63321;BME280;49449;48.800;9.534;2023-08-06T03:34:29;97651.09;;;15.70;45.83
63321;BME280;49449;48.800;9.534;2023-08-06T03:36:58;97651.03;;;15.76;45.69
63321;BME280;49449;48.800;9.534;2023-08-06T03:39:26;97650.47;;;15.79;45.37
63321;BME280;49449;48.800;9.534;2023-08-06T03:41:54;97655.88;;;15.74;44.55
63321;BME280;49449;48.800;9.534;2023-08-06T03:44:22;97657.97;;;15.77;44.32
63321;BME280;49449;48.800;9.534;2023-08-06T03:46:50;97656.59;;;15.79;44.13
63321;BME280;49449;48.800;9.534;2023-08-06T03:49:18;97656.53;;;15.84;43.95
63321;BME280;49449;48.800;9.534;2023-08-06T03:51:46;97659.16;;;15.89;43.67
63321;BME280;49449;48.800;9.534;2023-08-06T03:54:15;97645.16;;;15.79;43.60
63321;BME280;49449;48.800;9.534;2023-08-06T03:56:43;97650.44;;;15.84;44.08
63321;BME280;49449;48.800;9.534;2023-08-06T03:59:10;97651.44;;;15.88;43.93
63321;BME280;49449;48.800;9.534;2023-08-06T04:01:38;97648.56;;;15.84;43.63
63321;BME280;49449;48.800;9.534;2023-08-06T04:04:06;97658.75;;;15.77;43.59
63321;BME280;49449;48.800;9.534;2023-08-06T04:06:34;97662.47;;;15.52;44.29
63321;BME280;49449;48.800;9.534;2023-08-06T04:09:02;97670.09;;;15.59;44.67
63321;BME280;49449;48.800;9.534;2023-08-06T04:11:31;97673.81;;;15.63;44.97
63321;BME280;49449;48.800;9.534;2023-08-06T04:13:59;97674.09;;;15.61;44.70
63321;BME280;49449;48.800;9.534;2023-08-06T04:16:27;97668.72;;;15.66;44.60
63321;BME280;49449;48.800;9.534;2023-08-06T04:18:55;97661.19;;;15.74;44.27
63321;BME280;49449;48.800;9.534;2023-08-06T04:21:24;97660.31;;;15.78;44.33
63321;BME280;49449;48.800;9.534;2023-08-06T04:23:52;97663.56;;;15.75;44.83
63321;BME280;49449;48.800;9.534;2023-08-06T04:26:20;97659.25;;;15.79;44.57
63321;BME280;49449;48.800;9.534;2023-08-06T04:28:49;97658.19;;;15.80;44.66
63321;BME280;49449;48.800;9.534;2023-08-06T04:31:17;97659.22;;;15.84;44.96
63321;BME280;49449;48.800;9.534;2023-08-06T04:33:44;97663.97;;;15.87;45.19
63321;BME280;49449;48.800;9.534;2023-08-06T04:36:12;97660.22;;;15.88;45.24
63321;BME280;49449;48.800;9.534;2023-08-06T04:38:40;97663.91;;;15.93;45.72
63321;BME280;49449;48.800;9.534;2023-08-06T04:41:11;97666.53;;;15.98;45.58
63321;BME280;49449;48.800;9.534;2023-08-06T04:43:39;97668.66;;;15.96;45.66
63321;BME280;49449;48.800;9.534;2023-08-06T04:46:08;97666.28;;;15.94;45.85
63321;BME280;49449;48.800;9.534;2023-08-06T04:48:36;97659.09;;;15.95;45.22
63321;BME280;49449;48.800;9.534;2023-08-06T04:51:04;97657.00;;;15.91;45.01
63321;BME280;49449;48.800;9.534;2023-08-06T04:53:31;97659.94;;;15.90;45.01
63321;BME280;49449;48.800;9.534;2023-08-06T04:55:59;97659.22;;;15.84;45.31
63321;BME280;49449;48.800;9.534;2023-08-06T04:58:27;97656.88;;;15.78;45.33
63321;BME280;49449;48.800;9.534;2023-08-06T05:00:55;97664.19;;;15.67;45.11
63321;BME280;49449;48.800;9.534;2023-08-06T05:03:24;97665.81;;;15.63;45.49
63321;BME280;49449;48.800;9.534;2023-08-06T05:05:51;97672.16;;;15.67;45.04
63321;BME280;49449;48.800;9.534;2023-08-06T05:08:19;97669.13;;;15.49;45.13
63321;BME280;49449;48.800;9.534;2023-08-06T05:10:47;97667.81;;;15.52;45.11
63321;BME280;49449;48.800;9.534;2023-08-06T05:13:15;97659.09;;;15.41;45.04
63321;BME280;49449;48.800;9.534;2023-08-06T05:15:42;97655.19;;;15.33;45.03
63321;BME280;49449;48.800;9.534;2023-08-06T05:18:12;97657.94;;;15.18;45.56
63321;BME280;49449;48.800;9.534;2023-08-06T05:20:42;97664.63;;;15.15;45.40
63321;BME280;49449;48.800;9.534;2023-08-06T05:23:10;97653.66;;;15.22;45.18
63321;BME280;49449;48.800;9.534;2023-08-06T05:25:38;97667.75;;;15.23;45.19
63321;BME280;49449;48.800;9.534;2023-08-06T05:28:06;97675.78;;;15.18;45.71
63321;BME280;49449;48.800;9.534;2023-08-06T05:30:34;97673.69;;;15.09;45.79
63321;BME280;49449;48.800;9.534;2023-08-06T05:33:03;97666.91;;;14.93;46.25
63321;BME280;49449;48.800;9.534;2023-08-06T05:35:31;97672.72;;;15.00;46.11
63321;BME280;49449;48.800;9.534;2023-08-06T05:38:00;97672.44;;;15.02;45.97
63321;BME280;49449;48.800;9.534;2023-08-06T05:40:28;97668.63;;;15.13;45.38
63321;BME280;49449;48.800;9.534;2023-08-06T05:42:56;97682.34;;;15.25;45.53
63321;BME280;49449;48.800;9.534;2023-08-06T05:45:23;97682.06;;;15.32;45.36
63321;BME280;49449;48.800;9.534;2023-08-06T05:47:51;97679.53;;;15.17;45.57
63321;BME280;49449;48.800;9.534;2023-08-06T05:50:20;97688.50;;;15.26;45.34
63321;BME280;49449;48.800;9.534;2023-08-06T05:52:48;97685.81;;;15.31;45.31
63321;BME280;49449;48.800;9.534;2023-08-06T05:55:17;97685.47;;;15.38;44.92
63321;BME280;49449;48.800;9.534;2023-08-06T05:57:45;97689.00;;;15.33;45.05
63321;BME280;49449;48.800;9.534;2023-08-06T06:00:13;97695.13;;;15.28;44.94
63321;BME280;49449;48.800;9.534;2023-08-06T06:02:41;97683.59;;;15.04;45.21
63321;BME280;49449;48.800;9.534;2023-08-06T06:05:08;97689.03;;;15.28;45.12
63321;BME280;49449;48.800;9.534;2023-08-06T06:07:36;97689.03;;;15.28;45.00
63321;BME280;49449;48.800;9.534;2023-08-06T06:10:05;97688.50;;;15.26;45.01
63321;BME280;49449;48.800;9.534;2023-08-06T06:12:34;97680.97;;;15.38;45.17
63321;BME280;49449;48.800;9.534;2023-08-06T06:15:02;97686.28;;;15.38;45.43
63321;BME280;49449;48.800;9.534;2023-08-06T06:17:30;97683.16;;;15.26;45.26
63321;BME280;49449;48.800;9.534;2023-08-06T06:19:58;97689.25;;;15.31;45.33
63321;BME280;49449;48.800;9.534;2023-08-06T06:22:25;97686.53;;;15.42;45.26
63321;BME280;49449;48.800;9.534;2023-08-06T06:24:53;97681.94;;;15.47;45.32
63321;BME280;49449;48.800;9.534;2023-08-06T06:27:21;97690.91;;;15.57;44.96
63321;BME280;49449;48.800;9.534;2023-08-06T06:29:50;97685.81;;;15.60;44.73
63321;BME280;49449;48.800;9.534;2023-08-06T06:32:18;97691.13;;;15.60;44.74
63321;BME280;49449;48.800;9.534;2023-08-06T06:34:46;97689.31;;;15.56;45.02
63321;BME280;49449;48.800;9.534;2023-08-06T06:37:14;97693.66;;;15.46;45.22
63321;BME280;49449;48.800;9.534;2023-08-06T06:39:42;97692.94;;;15.36;45.50
63321;BME280;49449;48.800;9.534;2023-08-06T06:42:10;97699.31;;;15.40;45.75
63321;BME280;49449;48.800;9.534;2023-08-06T06:44:38;97702.69;;;15.50;45.09
63321;BME280;49449;48.800;9.534;2023-08-06T06:47:07;97710.97;;;15.44;45.50
63321;BME280;49449;48.800;9.534;2023-08-06T06:49:35;97708.38;;;15.39;45.99
63321;BME280;49449;48.800;9.534;2023-08-06T06:52:03;97700.25;;;15.54;45.72
63321;BME280;49449;48.800;9.534;2023-08-06T06:54:31;97699.78;;;15.47;45.91
63321;BME280;49449;48.800;9.534;2023-08-06T06:56:58;97701.41;;;15.43;46.45
63321;BME280;49449;48.800;9.534;2023-08-06T06:59:26;97697.47;;;15.35;46.48
63321;BME280;49449;48.800;9.534;2023-08-06T07:01:54;97702.81;;;15.35;46.34
63321;BME280;49449;48.800;9.534;2023-08-06T07:04:23;97707.00;;;15.41;45.74
63321;BME280;49449;48.800;9.534;2023-08-06T07:06:51;97706.06;;;15.22;46.38
63321;BME280;49449;48.800;9.534;2023-08-06T07:09:19;97705.56;;;15.20;46.45
63321;BME280;49449;48.800;9.534;2023-08-06T07:11:47;97711.38;;;15.22;45.90
63321;BME280;49449;48.800;9.534;2023-08-06T07:14:15;97711.38;;;15.22;45.79
63321;BME280;49449;48.800;9.534;2023-08-06T07:16:42;97705.94;;;15.08;45.97
63321;BME280;49449;48.800;9.534;2023-08-06T07:19:10;97710.31;;;15.28;45.86
63321;BME280;49449;48.800;9.534;2023-08-06T07:21:39;97705.00;;;15.28;45.67
63321;BME280;49449;48.800;9.534;2023-08-06T07:24:07;97707.16;;;15.21;45.60
63321;BME280;49449;48.800;9.534;2023-08-06T07:26:35;97713.44;;;15.35;45.60
63321;BME280;49449;48.800;9.534;2023-08-06T07:29:02;97709.50;;;15.32;45.72
63321;BME280;49449;48.800;9.534;2023-08-06T07:31:30;97708.50;;;14.78;46.50
63321;BME280;49449;48.800;9.534;2023-08-06T07:33:58;97711.94;;;14.79;46.75
63321;BME280;49449;48.800;9.534;2023-08-06T07:36:26;97710.22;;;14.99;46.98
63321;BME280;49449;48.800;9.534;2023-08-06T07:38:55;97703.25;;;15.08;46.43
63321;BME280;49449;48.800;9.534;2023-08-06T07:41:23;97711.69;;;15.20;46.31
63321;BME280;49449;48.800;9.534;2023-08-06T07:43:51;97714.44;;;15.05;46.34
63321;BME280;49449;48.800;9.534;2023-08-06T07:46:19;97724.50;;;14.68;47.88
63321;BME280;49449;48.800;9.534;2023-08-06T07:48:46;97711.56;;;15.01;46.96
63321;BME280;49449;48.800;9.534;2023-08-06T07:51:14;97721.09;;;15.02;46.18
63321;BME280;49449;48.800;9.534;2023-08-06T07:53:42;97724.38;;;14.94;46.50
63321;BME280;49449;48.800;9.534;2023-08-06T07:56:11;97726.50;;;14.92;47.15
63321;BME280;49449;48.800;9.534;2023-08-06T07:58:39;97727.31;;;14.87;46.75
63321;BME280;49449;48.800;9.534;2023-08-06T08:01:06;97719.06;;;14.89;47.10
63321;BME280;49449;48.800;9.534;2023-08-06T08:03:34;97727.56;;;14.91;46.99
63321;BME280;49449;48.800;9.534;2023-08-06T08:06:02;97719.47;;;14.62;46.96
63321;BME280;49449;48.800;9.534;2023-08-06T08:08:30;97718.13;;;14.69;47.12
63321;BME280;49449;48.800;9.534;2023-08-06T08:10:58;97711.28;;;14.53;48.14
63321;BME280;49449;48.800;9.534;2023-08-06T08:13:28;97721.78;;;14.78;47.93
63321;BME280;49449;48.800;9.534;2023-08-06T08:15:59;97707.97;;;14.76;47.68
63321;BME280;49449;48.800;9.534;2023-08-06T08:18:27;97711.91;;;14.84;47.52
63321;BME280;49449;48.800;9.534;2023-08-06T08:20:54;97706.13;;;15.17;46.68
63321;BME280;49449;48.800;9.534;2023-08-06T08:23:22;97705.69;;;15.04;47.12
63321;BME280;49449;48.800;9.534;2023-08-06T08:25:50;97712.59;;;15.00;47.15
63321;BME280;49449;48.800;9.534;2023-08-06T08:28:18;97718.38;;;15.12;46.69
63321;BME280;49449;48.800;9.534;2023-08-06T08:30:47;97702.22;;;14.64;47.38
63321;BME280;49449;48.800;9.534;2023-08-06T08:33:15;97709.25;;;14.84;47.56
63321;BME280;49449;48.800;9.534;2023-08-06T08:35:45;97711.56;;;15.01;46.43
63321;BME280;49449;48.800;9.534;2023-08-06T08:38:13;97703.56;;;15.01;47.13
63321;BME280;49449;48.800;9.534;2023-08-06T08:40:46;97694.53;;;14.97;47.17
63321;BME280;49449;48.800;9.534;2023-08-06T08:43:15;97703.94;;;15.24;46.38
63321;BME280;49449;48.800;9.534;2023-08-06T08:45:44;97699.47;;;15.14;46.29
63321;BME280;49449;48.800;9.534;2023-08-06T08:48:18;97710.78;;;15.35;46.71
63321;BME280;49449;48.800;9.534;2023-08-06T08:50:47;97703.28;;;15.42;45.89
63321;BME280;49449;48.800;9.534;2023-08-06T08:53:16;97701.13;;;15.74;44.88
63321;BME280;49449;48.800;9.534;2023-08-06T08:55:47;97697.38;;;15.75;44.71
63321;BME280;49449;48.800;9.534;2023-08-06T08:58:15;97700.06;;;15.45;45.45
63321;BME280;49449;48.800;9.534;2023-08-06T09:00:43;97690.19;;;15.75;45.04
63321;BME280;49449;48.800;9.534;2023-08-06T09:03:13;97712.13;;;15.91;44.58
63321;BME280;49449;48.800;9.534;2023-08-06T09:05:44;97703.34;;;15.90;44.81
63321;BME280;49449;48.800;9.534;2023-08-06T09:08:18;97713.03;;;16.11;44.60
63321;BME280;49449;48.800;9.534;2023-08-06T09:10:48;97708.66;;;15.66;44.85
63321;BME280;49449;48.800;9.534;2023-08-06T09:13:16;97703.50;;;15.99;44.63
63321;BME280;49449;48.800;9.534;2023-08-06T09:15:44;97706.69;;;15.77;44.02
63321;BME280;49449;48.800;9.534;2023-08-06T09:18:12;97711.09;;;15.87;43.78
63321;BME280;49449;48.800;9.534;2023-08-06T09:20:40;97715.41;;;15.83;44.65
63321;BME280;49449;48.800;9.534;2023-08-06T09:23:10;97723.81;;;15.95;45.25
63321;BME280;49449;48.800;9.534;2023-08-06T09:25:39;97713.72;;;15.68;45.79
63321;BME280;49449;48.800;9.534;2023-08-06T09:28:07;97723.38;;;15.19;46.35
63321;BME280;49449;48.800;9.534;2023-08-06T09:30:36;97721.34;;;15.06;46.34
63321;BME280;49449;48.800;9.534;2023-08-06T09:33:08;97725.47;;;14.83;46.79
63321;BME280;49449;48.800;9.534;2023-08-06T09:35:36;97719.00;;;15.04;46.59
63321;BME280;49449;48.800;9.534;2023-08-06T09:38:08;97719.09;;;15.23;47.35
63321;BME280;49449;48.800;9.534;2023-08-06T09:40:39;97729.47;;;15.25;46.10
63321;BME280;49449;48.800;9.534;2023-08-06T09:43:07;97720.88;;;14.99;46.46
63321;BME280;49449;48.800;9.534;2023-08-06T09:45:36;97718.09;;;14.74;46.82
63321;BME280;49449;48.800;9.534;2023-08-06T09:48:04;97720.75;;;14.74;46.82
63321;BME280;49449;48.800;9.534;2023-08-06T09:50:34;97728.31;;;14.96;47.33
63321;BME280;49449;48.800;9.534;2023-08-06T09:53:03;97722.75;;;14.93;47.18
63321;BME280;49449;48.800;9.534;2023-08-06T09:55:32;97716.22;;;15.14;47.09
63321;BME280;49449;48.800;9.534;2023-08-06T09:58:02;97722.56;;;15.24;46.40
63321;BME280;49449;48.800;9.534;2023-08-06T10:00:30;97730.06;;;15.17;46.39
63321;BME280;49449;48.800;9.534;2023-08-06T10:03:00;97732.09;;;15.35;46.09
63321;BME280;49449;48.800;9.534;2023-08-06T10:05:28;97732.31;;;15.39;45.97
63321;BME280;49449;48.800;9.534;2023-08-06T10:07:59;97721.31;;;15.50;46.09
63321;BME280;49449;48.800;9.534;2023-08-06T10:10:28;97718.72;;;15.40;46.26
63321;BME280;49449;48.800;9.534;2023-08-06T10:12:58;97723.28;;;14.95;47.48
63321;BME280;49449;48.800;9.534;2023-08-06T10:15:31;97725.94;;;15.40;46.29
63321;BME280;49449;48.800;9.534;2023-08-06T10:18:00;97729.28;;;15.11;46.46
63321;BME280;49449;48.800;9.534;2023-08-06T10:20:33;97725.22;;;15.24;46.47
63321;BME280;49449;48.800;9.534;2023-08-06T10:23:01;97730.44;;;15.39;47.18
63321;BME280;49449;48.800;9.534;2023-08-06T10:25:33;97715.38;;;14.85;47.28
63321;BME280;49449;48.800;9.534;2023-08-06T10:28:07;97736.78;;;15.04;47.78
63321;BME280;49449;48.800;9.534;2023-08-06T10:30:42;97728.34;;;14.91;48.06
63321;BME280;49449;48.800;9.534;2023-08-06T10:33:11;97730.09;;;15.11;47.46
63321;BME280;49449;48.800;9.534;2023-08-06T10:35:41;97732.41;;;15.23;48.03
63321;BME280;49449;48.800;9.534;2023-08-06T10:38:11;97745.66;;;15.33;47.60
63321;BME280;49449;48.800;9.534;2023-08-06T10:40:48;97743.25;;;15.37;47.81
63321;BME280;49449;48.800;9.534;2023-08-06T10:43:25;97751.25;;;15.66;46.62
63321;BME280;49449;48.800;9.534;2023-08-06T10:45:54;97748.63;;;15.61;47.19
63321;BME280;49449;48.800;9.534;2023-08-06T10:48:30;97753.66;;;15.68;46.47
63321;BME280;49449;48.800;9.534;2023-08-06T10:51:00;97756.78;;;15.75;46.99
63321;BME280;49449;48.800;9.534;2023-08-06T10:53:28;97758.00;;;15.53;48.03
63321;BME280;49449;48.800;9.534;2023-08-06T10:55:58;97755.00;;;15.31;49.03
63321;BME280;49449;48.800;9.534;2023-08-06T10:58:31;97749.78;;;15.10;48.22
63321;BME280;49449;48.800;9.534;2023-08-06T11:01:00;97753.31;;;15.01;48.96
63321;BME280;49449;48.800;9.534;2023-08-06T11:03:28;97751.16;;;15.08;47.57
63321;BME280;49449;48.800;9.534;2023-08-06T11:05:56;97758.25;;;15.18;47.56
63321;BME280;49449;48.800;9.534;2023-08-06T11:08:25;97754.16;;;14.91;47.93
63321;BME280;49449;48.800;9.534;2023-08-06T11:10:53;97753.25;;;15.06;48.24
63321;BME280;49449;48.800;9.534;2023-08-06T11:13:27;97748.66;;;14.77;48.76
63321;BME280;49449;48.800;9.534;2023-08-06T11:15:56;97753.88;;;14.98;47.86
63321;BME280;49449;48.800;9.534;2023-08-06T11:18:26;97756.47;;;15.08;47.94
63321;BME280;49449;48.800;9.534;2023-08-06T11:20:54;97754.50;;;15.24;47.26
63321;BME280;49449;48.800;9.534;2023-08-06T11:23:21;97745.25;;;15.11;47.66
63321;BME280;49449;48.800;9.534;2023-08-06T11:25:49;97751.56;;;14.81;48.19
63321;BME280;49449;48.800;9.534;2023-08-06T11:28:19;97760.47;;;14.45;48.81
63321;BME280;49449;48.800;9.534;2023-08-06T11:30:47;97768.50;;;14.95;48.15
63321;BME280;49449;48.800;9.534;2023-08-06T11:33:20;97784.94;;;15.02;48.33
63321;BME280;49449;48.800;9.534;2023-08-06T11:35:50;97784.56;;;15.29;48.71
63321;BME280;49449;48.800;9.534;2023-08-06T11:38:18;97779.47;;;15.33;47.64
63321;BME280;49449;48.800;9.534;2023-08-06T11:40:46;97785.97;;;15.51;47.24
63321;BME280;49449;48.800;9.534;2023-08-06T11:43:14;97789.34;;;15.62;46.51
63321;BME280;49449;48.800;9.534;2023-08-06T11:45:42;97798.00;;;15.48;46.42
63321;BME280;49449;48.800;9.534;2023-08-06T11:48:10;97799.97;;;15.67;46.71
63321;BME280;49449;48.800;9.534;2023-08-06T11:50:38;97797.44;;;15.46;46.35
63321;BME280;49449;48.800;9.534;2023-08-06T11:53:07;97786.94;;;15.65;45.78
63321;BME280;49449;48.800;9.534;2023-08-06T11:55:39;97795.44;;;15.67;45.61
63321;BME280;49449;48.800;9.534;2023-08-06T11:58:07;97789.09;;;15.63;45.07
63321;BME280;49449;48.800;9.534;2023-08-06T12:00:36;97798.72;;;15.59;43.87
63321;BME280;49449;48.800;9.534;2023-08-06T12:03:05;97804.31;;;15.58;44.62
63321;BME280;49449;48.800;9.534;2023-08-06T12:05:33;97813.31;;;15.62;44.27
63321;BME280;49449;48.800;9.534;2023-08-06T12:08:02;97815.72;;;15.63;44.53
63321;BME280;49449;48.800;9.534;2023-08-06T12:10:32;97821.03;;;15.63;44.63
63321;BME280;49449;48.800;9.534;2023-08-06T12:13:00;97838.41;;;15.56;45.02
63321;BME280;49449;48.800;9.534;2023-08-06T12:15:29;97823.94;;;15.27;44.35
63321;BME280;49449;48.800;9.534;2023-08-06T12:17:58;97837.78;;;15.19;45.12
63321;BME280;49449;48.800;9.534;2023-08-06T12:20:25;97843.06;;;15.34;44.78
63321;BME280;49449;48.800;9.534;2023-08-06T12:22:54;97852.97;;;15.19;45.18
63321;BME280;49449;48.800;9.534;2023-08-06T12:25:22;97851.84;;;14.70;45.31
63321;BME280;49449;48.800;9.534;2023-08-06T12:27:54;97860.31;;;14.77;46.08
63321;BME280;49449;48.800;9.534;2023-08-06T12:30:21;97871.06;;;15.17;45.60
63321;BME280;49449;48.800;9.534;2023-08-06T12:32:49;97877.44;;;15.21;45.00
63321;BME280;49449;48.800;9.534;2023-08-06T12:35:20;97879.00;;;15.27;45.39
63321;BME280;49449;48.800;9.534;2023-08-06T12:37:47;97874.50;;;15.22;45.27
63321;BME280;49449;48.800;9.534;2023-08-06T12:40:15;97877.53;;;15.00;45.52
63321;BME280;49449;48.800;9.534;2023-08-06T12:42:56;97887.41;;;14.89;45.68
63321;BME280;49449;48.800;9.534;2023-08-06T12:45:25;97890.00;;;15.05;45.80
63321;BME280;49449;48.800;9.534;2023-08-06T12:47:53;97884.38;;;15.17;44.81
63321;BME280;49449;48.800;9.534;2023-08-06T12:50:20;97901.66;;;15.19;45.38
63321;BME280;49449;48.800;9.534;2023-08-06T12:52:51;97897.50;;;14.98;45.51
63321;BME280;49449;48.800;9.534;2023-08-06T12:55:19;97890.81;;;15.00;45.15
63321;BME280;49449;48.800;9.534;2023-08-06T12:57:46;97897.97;;;15.10;45.16
63321;BME280;49449;48.800;9.534;2023-08-06T13:00:24;97893.44;;;15.10;45.33
63321;BME280;49449;48.800;9.534;2023-08-06T13:02:54;97902.31;;;14.85;46.53
63321;BME280;49449;48.800;9.534;2023-08-06T13:05:22;97908.41;;;14.96;45.61
63321;BME280;49449;48.800;9.534;2023-08-06T13:07:50;97900.91;;;15.08;45.80